Terminal Aerodrome Forecast
Issued by NWS

Home | Current Version | Previous Version | Text Only | Print | Product List | Glossary On
Versions: 1 2 3 4 5 6 7 8 9 10 11 12 13 14 15 16 17
000
FTUS45 KRIW 210529
TAFJAC
TAF
KJAC 210529Z 2106/2206 01007KT P6SM SCT035 BKN050
      TEMPO 2112/2115 P6SM SCT020 BKN035
     FM211700 VRB05KT 6SM -SN SCT020 BKN030
     FM212000 19006KT 3SM -SN SCT015 BKN025
     FM220100 VRB05KT P6SM VCSH SCT020 BKN030
      AMD LTD TO CLD VIS AND WIND=

USA.gov is the U.S. government's official web portal to all federal, state and local government web resources and services.